createdAt,value
2018-08-18T00:02:03.287Z,1.10
2018-08-18T00:04:33.031Z,1.20
2018-08-18T00:07:02.256Z,0.90
2018-08-18T00:09:30.948Z,0.80
2018-08-18T00:11:59.271Z,0.77
2018-08-18T00:14:27.716Z,0.87
2018-08-18T00:16:56.108Z,0.87
2018-08-18T00:19:26.367Z,0.70
2018-08-18T00:21:54.850Z,0.70
2018-08-18T00:24:23.298Z,0.83
2018-08-18T00:26:52.340Z,1.07
2018-08-18T00:29:20.806Z,0.80
2018-08-18T00:31:49.119Z,1.03
2018-08-18T00:34:17.492Z,0.80
2018-08-18T00:36:45.813Z,0.80
2018-08-18T00:39:14.292Z,0.80
2018-08-18T00:41:42.762Z,0.80
2018-08-18T00:44:11.765Z,0.90
2018-08-18T00:46:41.111Z,0.80
2018-08-18T00:49:09.488Z,0.77
2018-08-18T00:51:41.513Z,0.83
2018-08-18T00:54:09.974Z,1.43
2018-08-18T00:56:40.666Z,0.90
2018-08-18T00:59:09.660Z,1.00
2018-08-18T01:01:38.054Z,0.80
2018-08-18T01:04:08.037Z,0.73
2018-08-18T01:06:39.845Z,0.90
2018-08-18T01:09:11.431Z,0.90
2018-08-18T01:11:39.904Z,0.70
2018-08-18T01:14:15.018Z,0.73
2018-08-18T01:16:48.586Z,0.83
2018-08-18T01:19:17.497Z,0.63
2018-08-18T01:21:51.176Z,0.53
2018-08-18T01:24:20.142Z,0.83
2018-08-18T01:26:48.852Z,0.80
2018-08-18T01:29:17.814Z,0.90
2018-08-18T01:31:46.661Z,0.63
2018-08-18T01:34:15.147Z,0.97
2018-08-18T01:36:43.569Z,0.90
2018-08-18T01:39:13.372Z,0.80
2018-08-18T01:41:41.904Z,1.00
2018-08-18T01:44:12.240Z,0.90
2018-08-18T01:46:41.248Z,0.67
2018-08-18T01:49:30.150Z,0.80
2018-08-18T01:52:00.276Z,0.73
2018-08-18T01:54:29.298Z,1.10
2018-08-18T01:57:09.842Z,1.03
2018-08-18T01:59:40.801Z,0.70
2018-08-18T02:02:16.418Z,0.70
2018-08-18T02:04:45.563Z,1.03
2018-08-18T02:07:30.898Z,0.73
2018-08-18T02:09:59.370Z,0.67
2018-08-18T02:12:28.162Z,0.90
2018-08-18T02:14:57.017Z,0.83
2018-08-18T02:17:27.062Z,0.90
2018-08-18T02:19:55.944Z,1.10
2018-08-18T02:22:25.368Z,0.80
2018-08-18T02:24:53.886Z,0.80
2018-08-18T02:27:22.321Z,0.97
2018-08-18T02:30:03.612Z,0.90
2018-08-18T02:32:33.342Z,0.90
2018-08-18T02:35:01.746Z,0.90
2018-08-18T02:37:31.607Z,1.00
2018-08-18T02:40:00.120Z,0.93
2018-08-18T02:42:28.451Z,1.13
2018-08-18T02:44:56.905Z,0.80
2018-08-18T02:47:25.341Z,1.23
2018-08-18T02:49:54.761Z,0.80
2018-08-18T02:52:28.180Z,1.30
2018-08-18T02:55:00.189Z,1.50
2018-08-18T02:57:32.667Z,1.10
2018-08-18T03:00:03.413Z,1.00
2018-08-18T03:02:31.813Z,1.10
2018-08-18T03:05:00.282Z,1.13
2018-08-18T03:07:30.869Z,1.20
2018-08-18T03:09:59.278Z,1.13
2018-08-18T03:12:32.952Z,1.20
2018-08-18T03:15:01.399Z,1.50
2018-08-18T03:17:29.795Z,1.20
2018-08-18T03:19:58.239Z,1.03
2018-08-18T03:22:30.864Z,1.50
2018-08-18T03:24:59.236Z,0.97
2018-08-18T03:27:27.620Z,1.20
2018-08-18T03:29:56.047Z,1.00
2018-08-18T03:32:24.339Z,1.40
2018-08-18T03:34:52.758Z,1.40
2018-08-18T03:37:28.325Z,1.50
2018-08-18T03:39:56.804Z,1.13
2018-08-18T03:42:31.543Z,1.40
2018-08-18T03:44:59.854Z,1.30
2018-08-18T03:47:28.138Z,1.40
2018-08-18T03:49:56.538Z,1.20
2018-08-18T03:52:25.049Z,1.50
2018-08-18T03:54:53.332Z,1.27
2018-08-18T03:57:21.727Z,1.20
2018-08-18T03:59:50.811Z,1.20
2018-08-18T04:02:19.148Z,1.20
2018-08-18T04:04:50.270Z,1.33
2018-08-18T04:07:18.750Z,1.60
2018-08-18T04:09:47.279Z,1.30
2018-08-18T04:12:16.691Z,1.27
2018-08-18T04:14:45.468Z,1.40
2018-08-18T04:17:25.150Z,1.40
2018-08-18T04:19:53.448Z,1.30
2018-08-18T04:22:23.705Z,1.53
2018-08-18T04:24:52.079Z,1.30
2018-08-18T04:27:39.619Z,1.40
2018-08-18T04:30:10.230Z,1.53
2018-08-18T04:32:59.473Z,1.43
2018-08-18T04:35:28.879Z,1.63
2018-08-18T04:37:59.019Z,1.47
2018-08-18T04:40:27.651Z,1.60
2018-08-18T04:42:56.218Z,1.53
2018-08-18T04:45:24.709Z,1.10
2018-08-18T04:47:53.116Z,1.00
2018-08-18T04:50:21.571Z,1.40
2018-08-18T04:52:51.443Z,1.67
2018-08-18T04:55:20.114Z,1.50
2018-08-18T04:57:48.494Z,1.00
2018-08-18T05:00:16.897Z,1.20
2018-08-18T05:02:50.569Z,1.07
2018-08-18T05:05:22.234Z,1.17
2018-08-18T05:07:50.913Z,1.02
2018-08-18T05:10:20.663Z,1.00
2018-08-18T05:12:49.096Z,0.90
2018-08-18T05:15:18.529Z,1.00
2018-08-18T05:17:48.114Z,1.07
2018-08-18T05:20:21.273Z,0.83
2018-08-18T05:22:49.707Z,1.02
2018-08-18T05:25:19.828Z,1.03
2018-08-18T05:27:48.287Z,1.17
2018-08-18T05:30:16.684Z,1.00
2018-08-18T05:32:45.203Z,1.00
2018-08-18T05:35:13.806Z,0.80
2018-08-18T05:37:42.620Z,0.97
2018-08-18T05:40:10.979Z,1.27
2018-08-18T05:42:39.213Z,0.90
2018-08-18T05:45:21.025Z,0.75
2018-08-18T05:47:49.739Z,1.00
2018-08-18T05:50:18.159Z,0.70
2018-08-18T05:52:46.527Z,0.90
2018-08-18T05:55:14.832Z,0.82
2018-08-18T05:57:43.203Z,0.70
2018-08-18T06:00:20.880Z,1.00
2018-08-18T06:02:54.635Z,0.80
2018-08-18T06:05:23.012Z,0.60
2018-08-18T06:07:51.319Z,0.90
2018-08-18T06:10:19.590Z,0.80
2018-08-18T06:12:47.882Z,0.82
2018-08-18T06:15:16.217Z,0.70
2018-08-18T06:17:44.540Z,0.88
2018-08-18T06:20:12.842Z,0.82
2018-08-18T06:22:41.343Z,0.53
2018-08-18T06:25:10.293Z,0.72
2018-08-18T06:27:38.569Z,0.40
2018-08-18T06:30:07.252Z,0.62
2018-08-18T06:32:35.542Z,0.50
2018-08-18T06:35:03.861Z,0.70
2018-08-18T06:37:32.200Z,0.70
2018-08-18T06:40:00.696Z,0.47
2018-08-18T06:42:37.923Z,0.53
2018-08-18T06:45:16.057Z,0.60
2018-08-18T06:47:44.641Z,0.75
2018-08-18T06:50:15.244Z,0.45
2018-08-18T06:52:44.282Z,0.62
2018-08-18T06:55:19.724Z,0.35
2018-08-18T06:57:50.250Z,0.70
2018-08-18T07:00:20.796Z,0.40
2018-08-18T07:02:49.078Z,0.50
2018-08-18T07:05:18.443Z,0.42
2018-08-18T07:07:47.626Z,0.40
2018-08-18T07:10:25.908Z,0.57
2018-08-18T07:12:58.547Z,0.42
2018-08-18T07:15:28.502Z,0.40
2018-08-18T07:17:56.934Z,0.35
2018-08-18T07:20:25.229Z,0.50
2018-08-18T07:22:53.936Z,0.57
2018-08-18T07:25:22.338Z,0.30
2018-08-18T07:27:56.785Z,0.40
2018-08-18T07:30:25.279Z,0.40
2018-08-18T07:32:53.616Z,0.35
2018-08-18T07:35:21.969Z,0.25
2018-08-18T07:37:50.244Z,0.40
2018-08-18T07:40:21.781Z,0.40
2018-08-18T07:42:54.323Z,0.60
2018-08-18T07:45:22.651Z,0.40
2018-08-18T07:47:51.078Z,0.50
2018-08-18T07:50:19.444Z,0.40
2018-08-18T07:52:47.785Z,0.35
2018-08-18T07:55:16.090Z,0.33
2018-08-18T07:57:48.876Z,0.40
2018-08-18T08:00:17.224Z,0.30
2018-08-18T08:02:45.550Z,0.35
2018-08-18T08:05:13.948Z,0.30
2018-08-18T08:07:42.270Z,0.50
2018-08-18T08:10:10.560Z,0.50
2018-08-18T08:12:39.090Z,0.57
2018-08-18T08:15:07.312Z,0.60
2018-08-18T08:17:35.595Z,0.50
2018-08-18T08:20:04.867Z,0.50
2018-08-18T08:22:33.245Z,0.40
2018-08-18T08:25:01.578Z,0.40
2018-08-18T08:27:29.942Z,0.50
2018-08-18T08:29:58.312Z,0.50
2018-08-18T08:32:26.579Z,0.42
2018-08-18T08:34:55.866Z,0.60
2018-08-18T08:37:24.155Z,0.40
2018-08-18T08:39:52.418Z,0.40
2018-08-18T08:42:20.743Z,0.60
2018-08-18T08:44:49.088Z,0.40
2018-08-18T08:47:17.379Z,0.55
2018-08-18T08:49:45.626Z,0.42
2018-08-18T08:52:13.917Z,0.42
2018-08-18T08:54:42.251Z,0.50
2018-08-18T08:57:11.210Z,0.20
2018-08-18T08:59:40.682Z,0.80
2018-08-18T09:02:11.530Z,0.20
2018-08-18T09:04:39.807Z,0.33
2018-08-18T09:07:09.400Z,0.47
2018-08-18T09:09:37.696Z,0.30
2018-08-18T09:12:06.379Z,0.40
2018-08-18T09:14:34.696Z,0.60
2018-08-18T09:17:03.066Z,0.42
2018-08-18T09:19:31.424Z,0.33
2018-08-18T09:22:03.363Z,0.37
2018-08-18T09:24:32.271Z,0.50
2018-08-18T09:27:03.106Z,0.30
2018-08-18T09:29:36.904Z,0.47
2018-08-18T09:32:05.327Z,0.50
2018-08-18T09:34:42.024Z,0.50
2018-08-18T09:37:10.395Z,0.40
2018-08-18T09:39:38.712Z,0.40
2018-08-18T09:42:10.710Z,0.70
2018-08-18T09:44:41.506Z,0.40
2018-08-18T09:47:09.847Z,0.53
2018-08-18T09:49:38.171Z,0.62
2018-08-18T09:52:07.649Z,0.20
2018-08-18T09:54:36.022Z,0.37
2018-08-18T09:57:04.393Z,0.60
2018-08-18T10:00:39.085Z,0.40
2018-08-18T10:03:07.499Z,0.45
2018-08-18T10:05:36.133Z,0.72
2018-08-18T10:08:04.881Z,0.28
2018-08-18T10:10:33.306Z,1.45
2018-08-18T10:13:01.623Z,0.50
2018-08-18T10:15:29.997Z,0.20
2018-08-18T10:17:58.494Z,0.40
2018-08-18T10:20:26.879Z,0.53
2018-08-18T10:22:55.219Z,0.50
2018-08-18T10:25:23.569Z,0.40
2018-08-18T10:27:51.916Z,0.50
2018-08-18T10:30:20.266Z,0.60
2018-08-18T10:32:54.460Z,0.45
2018-08-18T10:35:28.308Z,0.65
2018-08-18T10:37:56.664Z,0.33
2018-08-18T10:40:26.445Z,0.50
2018-08-18T10:42:55.197Z,0.60
2018-08-18T10:45:23.535Z,0.72
2018-08-18T10:47:51.777Z,0.40
2018-08-18T10:51:29.923Z,0.60
2018-08-18T10:54:00.592Z,0.40
2018-08-18T10:56:29.271Z,0.50
2018-08-18T10:59:12.972Z,0.42
2018-08-18T11:02:25.835Z,0.30
2018-08-18T11:04:54.178Z,0.68
2018-08-18T11:07:22.464Z,0.30
2018-08-18T11:09:50.739Z,0.53
2018-08-18T11:12:18.972Z,0.40
2018-08-18T11:14:51.538Z,0.50
2018-08-18T11:17:19.856Z,0.50
2018-08-18T11:19:48.171Z,0.55
2018-08-18T11:22:55.512Z,0.50
2018-08-18T11:25:25.919Z,0.50
2018-08-18T11:27:55.045Z,0.93
2018-08-18T11:30:23.636Z,0.50
2018-08-18T11:32:53.253Z,0.40
2018-08-18T11:35:21.521Z,0.93
2018-08-18T11:38:15.120Z,0.70
2018-08-18T11:40:43.445Z,0.65
2018-08-18T11:43:13.499Z,0.68
2018-08-18T11:45:44.216Z,0.72
2018-08-18T11:48:16.700Z,0.80
2018-08-18T11:50:45.364Z,0.55
2018-08-18T11:53:13.669Z,0.90
2018-08-18T11:55:41.969Z,0.80
2018-08-18T11:58:11.759Z,0.65
2018-08-18T12:00:44.822Z,0.90
2018-08-18T12:03:19.304Z,0.70
2018-08-18T12:05:51.534Z,0.57
2018-08-18T12:08:21.497Z,0.57
2018-08-18T12:10:51.107Z,0.93
2018-08-18T12:13:26.727Z,0.75
2018-08-18T12:16:01.050Z,0.70
2018-08-18T12:18:31.941Z,1.00
2018-08-18T12:21:03.612Z,0.75
2018-08-18T12:23:33.237Z,1.02
2018-08-18T12:26:05.963Z,0.85
2018-08-18T12:28:39.724Z,0.80
2018-08-18T12:31:10.342Z,0.70
2018-08-18T12:33:38.685Z,0.90
2018-08-18T12:36:07.082Z,0.90
2018-08-18T12:38:35.671Z,0.90
2018-08-18T12:41:04.792Z,0.82
2018-08-18T12:43:39.437Z,1.00
2018-08-18T12:46:09.295Z,0.90
2018-08-18T12:48:39.479Z,1.12
2018-08-18T12:51:09.065Z,0.93
2018-08-18T12:53:42.784Z,1.10
2018-08-18T12:56:12.240Z,0.95
2018-08-18T12:58:40.788Z,1.12
2018-08-18T13:01:09.139Z,1.17
2018-08-18T13:03:37.485Z,1.02
2018-08-18T13:06:05.992Z,1.07
2018-08-18T13:08:34.274Z,0.85
2018-08-18T13:11:02.654Z,0.90
2018-08-18T13:14:33.946Z,0.80
2018-08-18T13:17:02.283Z,1.10
2018-08-18T13:19:34.791Z,1.30
2018-08-18T13:22:03.490Z,1.00
2018-08-18T13:24:32.358Z,1.00
2018-08-18T13:27:01.534Z,1.00
2018-08-18T13:29:29.867Z,1.02
2018-08-18T13:31:58.204Z,1.07
2018-08-18T13:34:26.541Z,1.07
2018-08-18T13:36:54.856Z,0.95
2018-08-18T13:39:23.161Z,1.12
2018-08-18T13:41:51.536Z,1.05
2018-08-18T13:44:28.612Z,1.05
2018-08-18T13:46:56.899Z,0.98
2018-08-18T13:49:26.180Z,0.80
2018-08-18T13:51:54.503Z,0.95
2018-08-18T13:54:22.889Z,1.20
2018-08-18T13:56:51.257Z,0.70
2018-08-18T13:59:52.582Z,0.88
2018-08-18T14:02:20.873Z,1.22
2018-08-18T14:04:49.233Z,0.98
2018-08-18T14:07:17.505Z,1.00
2018-08-18T14:09:51.200Z,1.25
2018-08-18T14:12:19.659Z,1.22
2018-08-18T14:14:48.469Z,1.15
2018-08-18T14:17:19.284Z,1.02
2018-08-18T14:19:47.604Z,1.10
2018-08-18T14:22:18.187Z,0.90
2018-08-18T14:24:46.529Z,1.00
2018-08-18T14:27:18.045Z,1.05
2018-08-18T14:29:47.373Z,0.88
2018-08-18T14:32:21.118Z,0.70
2018-08-18T14:34:56.362Z,1.10
2018-08-18T14:37:24.690Z,1.00
2018-08-18T14:39:52.985Z,0.80
2018-08-18T14:42:21.356Z,1.47
2018-08-18T14:44:49.912Z,0.80
2018-08-18T14:47:18.102Z,1.10
2018-08-18T14:49:46.397Z,1.00
2018-08-18T14:52:14.784Z,0.93
2018-08-18T14:54:43.162Z,0.98
2018-08-18T14:57:11.532Z,0.72
2018-08-18T14:59:39.899Z,1.00
2018-08-18T15:02:08.447Z,0.85
2018-08-18T15:04:36.874Z,1.00
2018-08-18T15:07:05.291Z,1.17
2018-08-18T15:09:38.182Z,1.15
2018-08-18T15:12:06.942Z,1.20
2018-08-18T15:14:35.338Z,1.20
2018-08-18T15:17:03.696Z,0.75
2018-08-18T15:19:32.068Z,1.20
2018-08-18T15:22:02.215Z,1.20
2018-08-18T15:24:30.564Z,1.52
2018-08-18T15:26:58.910Z,1.30
2018-08-18T15:29:27.220Z,1.30
2018-08-18T15:31:56.878Z,1.10
2018-08-18T15:34:25.988Z,0.90
2018-08-18T15:36:54.312Z,1.15
2018-08-18T15:39:24.217Z,1.05
2018-08-18T15:41:53.913Z,1.10
2018-08-18T15:44:22.187Z,1.05
2018-08-18T15:46:50.487Z,1.10
2018-08-18T15:49:18.759Z,1.12
2018-08-18T15:51:47.064Z,1.00
2018-08-18T15:54:15.429Z,1.05
2018-08-18T15:56:43.880Z,1.15
2018-08-18T15:59:13.330Z,1.00
2018-08-18T16:01:41.786Z,1.20
2018-08-18T16:04:10.158Z,1.05
2018-08-18T16:06:38.491Z,1.37
2018-08-18T16:09:08.071Z,1.30
2018-08-18T16:11:36.540Z,1.00
2018-08-18T16:14:04.923Z,1.07
2018-08-18T16:16:44.021Z,1.17
2018-08-18T16:19:15.213Z,1.47
2018-08-18T16:21:43.585Z,1.00
2018-08-18T16:24:26.586Z,1.30
2018-08-18T16:26:54.941Z,1.00
2018-08-18T16:29:23.263Z,1.10
2018-08-18T16:31:53.350Z,1.10
2018-08-18T16:34:21.632Z,1.10
2018-08-18T16:36:49.982Z,1.67
2018-08-18T16:39:18.302Z,1.22
2018-08-18T16:41:46.680Z,1.27
2018-08-18T16:44:14.950Z,1.10
2018-08-18T16:46:43.219Z,1.30
2018-08-18T16:49:11.531Z,0.90
2018-08-18T16:51:40.048Z,1.15
2018-08-18T16:54:19.747Z,1.10
2018-08-18T16:56:48.215Z,1.15
2018-08-18T16:59:16.625Z,1.12
2018-08-18T17:01:45.026Z,1.17
2018-08-18T17:04:17.624Z,1.07
2018-08-18T17:06:45.932Z,1.10
2018-08-18T17:09:26.680Z,1.37
2018-08-18T17:12:06.871Z,1.47
2018-08-18T17:14:35.257Z,1.20
2018-08-18T17:17:03.647Z,1.05
2018-08-18T17:19:33.049Z,1.27
2018-08-18T17:22:01.501Z,2.12
2018-08-18T17:24:29.754Z,1.32
2018-08-18T17:26:58.133Z,1.22
2018-08-18T17:29:26.522Z,1.17
2018-08-18T17:31:54.951Z,1.22
2018-08-18T17:34:23.326Z,1.50
2018-08-18T17:36:51.732Z,1.32
2018-08-18T17:39:20.222Z,1.40
2018-08-18T17:41:48.430Z,1.67
2018-08-18T17:44:16.724Z,1.32
2018-08-18T17:46:49.632Z,1.37
2018-08-18T17:49:17.971Z,1.22
2018-08-18T17:51:57.269Z,1.35
2018-08-18T17:54:25.569Z,1.20
2018-08-18T17:56:53.897Z,1.52
2018-08-18T17:59:22.478Z,1.20
2018-08-18T18:02:14.169Z,1.30
2018-08-18T18:04:42.453Z,1.17
2018-08-18T18:07:11.748Z,1.10
2018-08-18T18:09:40.097Z,1.27
2018-08-18T18:12:30.462Z,1.02
2018-08-18T18:14:58.807Z,1.27
2018-08-18T18:17:27.697Z,1.55
2018-08-18T18:19:58.586Z,1.15
2018-08-18T18:22:34.906Z,1.20
2018-08-18T18:25:03.267Z,1.27
2018-08-18T18:27:31.573Z,1.57
2018-08-18T18:29:59.936Z,1.65
2018-08-18T18:32:28.329Z,1.95
2018-08-18T18:34:56.779Z,1.90
2018-08-18T18:37:25.099Z,1.87
2018-08-18T18:40:02.231Z,2.62
2018-08-18T18:42:30.571Z,1.93
2018-08-18T18:44:59.502Z,2.03
2018-08-18T18:47:28.431Z,2.02
2018-08-18T18:49:56.679Z,2.30
2018-08-18T18:52:25.018Z,3.17
2018-08-18T18:54:56.373Z,2.25
2018-08-18T18:57:25.011Z,2.85
2018-08-18T19:00:00.968Z,2.60
2018-08-18T19:02:37.726Z,2.60
2018-08-18T19:05:18.571Z,2.90
2018-08-18T19:07:50.161Z,2.52
2018-08-18T19:10:18.426Z,2.20
2018-08-18T19:12:46.749Z,2.27
2018-08-18T19:15:15.094Z,2.02
2018-08-18T19:17:43.374Z,1.85
2018-08-18T19:20:20.410Z,2.20
2018-08-18T19:22:48.960Z,2.20
2018-08-18T19:25:17.232Z,2.30
2018-08-18T19:27:45.587Z,2.07
2018-08-18T19:30:13.886Z,2.53
2018-08-18T19:32:42.324Z,2.50
2018-08-18T19:35:10.941Z,2.53
2018-08-18T19:37:44.815Z,2.40
2018-08-18T19:40:13.158Z,2.73
2018-08-18T19:42:41.522Z,2.37
2018-08-18T19:45:09.780Z,2.20
2018-08-18T19:47:38.584Z,2.30
2018-08-18T19:50:07.766Z,1.73
2018-08-18T19:52:36.062Z,2.13
2018-08-18T19:55:04.414Z,1.57
2018-08-18T19:57:36.717Z,2.27
2018-08-18T20:00:16.420Z,1.93
2018-08-18T20:02:53.715Z,2.43
2018-08-18T20:05:22.791Z,1.80
2018-08-18T20:07:51.431Z,2.10
2018-08-18T20:10:19.811Z,1.93
2018-08-18T20:12:48.220Z,2.20
2018-08-18T20:15:16.847Z,2.20
2018-08-18T20:17:45.754Z,2.70
2018-08-18T20:20:17.493Z,2.13
2018-08-18T20:22:45.788Z,2.03
2018-08-18T20:25:14.330Z,2.50
2018-08-18T20:27:42.691Z,2.00
2018-08-18T20:30:11.438Z,2.60
2018-08-18T20:32:40.730Z,2.37
2018-08-18T20:35:09.005Z,2.40
2018-08-18T20:37:37.435Z,2.43
2018-08-18T20:40:06.758Z,2.47
2018-08-18T20:42:40.634Z,2.17
2018-08-18T20:45:09.790Z,2.53
2018-08-18T20:47:38.091Z,2.57
2018-08-18T20:50:08.726Z,2.07
2018-08-18T20:52:37.183Z,2.60
2018-08-18T20:55:05.920Z,2.70
2018-08-18T20:57:34.285Z,2.17
2018-08-18T21:00:02.705Z,2.70
2018-08-18T21:02:31.021Z,2.43
2018-08-18T21:05:01.426Z,2.83
2018-08-18T21:07:34.043Z,3.47
2018-08-18T21:10:07.593Z,3.40
2018-08-18T21:12:45.301Z,2.97
2018-08-18T21:15:15.037Z,3.97
2018-08-18T21:17:43.428Z,2.47
2018-08-18T21:20:14.413Z,2.83
2018-08-18T21:22:42.765Z,2.93
2018-08-18T21:25:12.263Z,3.40
2018-08-18T21:27:41.023Z,3.73
2018-08-18T21:30:15.448Z,3.60
2018-08-18T21:32:43.766Z,3.57
2018-08-18T21:35:12.166Z,3.80
2018-08-18T21:37:40.522Z,3.80
2018-08-18T21:40:09.667Z,3.20
2018-08-18T21:42:38.045Z,3.13
2018-08-18T21:45:10.438Z,3.67
2018-08-18T21:47:39.069Z,3.13
2018-08-18T21:50:07.507Z,3.20
2018-08-18T21:52:35.823Z,3.73
2018-08-18T21:55:04.273Z,3.50
2018-08-18T21:59:14.699Z,3.67
2018-08-18T22:01:43.061Z,3.57
2018-08-18T22:04:11.435Z,3.50
2018-08-18T22:06:39.788Z,3.70
2018-08-18T22:09:23.138Z,3.77
2018-08-18T22:11:51.622Z,3.23
2018-08-18T22:14:20.046Z,3.40
2018-08-18T22:16:53.898Z,3.70
2018-08-18T22:19:22.430Z,3.30
2018-08-18T22:21:50.792Z,3.17
2018-08-18T22:24:19.212Z,3.90
2018-08-18T22:26:47.537Z,4.20
2018-08-18T22:29:15.927Z,3.37
2018-08-18T22:31:44.279Z,3.53
2018-08-18T22:34:12.753Z,3.20
2018-08-18T22:37:01.502Z,3.93
2018-08-18T22:39:29.894Z,3.70
2018-08-18T22:41:58.281Z,4.00
2018-08-18T22:44:27.619Z,3.57
2018-08-18T22:46:55.950Z,3.37
2018-08-18T22:49:24.277Z,3.23
2018-08-18T22:51:52.583Z,3.33
2018-08-18T22:54:20.890Z,3.37
2018-08-18T22:56:54.691Z,3.63
2018-08-18T22:59:23.078Z,4.00
2018-08-18T23:01:51.472Z,3.37
2018-08-18T23:04:28.955Z,4.00
2018-08-18T23:06:57.883Z,3.43
2018-08-18T23:09:26.902Z,4.70
2018-08-18T23:11:59.188Z,4.53
2018-08-18T23:14:39.165Z,4.50
2018-08-18T23:17:11.816Z,4.43
2018-08-18T23:19:40.172Z,4.73
2018-08-18T23:22:18.634Z,4.60
2018-08-18T23:24:46.911Z,4.80
2018-08-18T23:27:15.302Z,5.03
2018-08-18T23:29:43.774Z,5.23
2018-08-18T23:32:16.349Z,4.53
2018-08-18T23:34:44.836Z,5.37
2018-08-18T23:37:18.475Z,5.40
2018-08-18T23:39:46.968Z,5.23
2018-08-18T23:42:23.786Z,4.83
2018-08-18T23:44:52.141Z,4.57
2018-08-18T23:47:21.547Z,5.23
2018-08-18T23:49:49.889Z,5.43
2018-08-18T23:52:19.406Z,4.93
2018-08-18T23:54:47.817Z,6.07
2018-08-18T23:57:17.000Z,5.47
2018-08-18T23:59:45.846Z,6.20
